sensor_id;sensor_type;location;lat;lon;timestamp;P1;durP1;ratioP1;P2;durP2;ratioP2
6093;SDS011;19964;42.060;24.700;2022-07-10T00:00:17;6.13;;;5.73;;
6093;SDS011;19964;42.060;24.700;2022-07-10T00:02:46;5.93;;;5.40;;
6093;SDS011;19964;42.060;24.700;2022-07-10T00:05:13;5.73;;;5.23;;
6093;SDS011;19964;42.060;24.700;2022-07-10T00:07:40;5.73;;;5.40;;
6093;SDS011;19964;42.060;24.700;2022-07-10T00:10:07;6.40;;;6.00;;
6093;SDS011;19964;42.060;24.700;2022-07-10T00:12:34;6.27;;;5.83;;
6093;SDS011;19964;42.060;24.700;2022-07-10T00:15:02;6.87;;;6.23;;
6093;SDS011;19964;42.060;24.700;2022-07-10T00:17:30;6.70;;;6.17;;
6093;SDS011;19964;42.060;24.700;2022-07-10T00:19:57;6.67;;;6.17;;
6093;SDS011;19964;42.060;24.700;2022-07-10T00:22:24;6.60;;;5.97;;
6093;SDS011;19964;42.060;24.700;2022-07-10T00:24:51;6.90;;;6.30;;
6093;SDS011;19964;42.060;24.700;2022-07-10T00:27:18;6.17;;;5.70;;
6093;SDS011;19964;42.060;24.700;2022-07-10T00:29:45;5.67;;;5.37;;
6093;SDS011;19964;42.060;24.700;2022-07-10T00:32:13;8.50;;;5.93;;
6093;SDS011;19964;42.060;24.700;2022-07-10T00:34:40;6.13;;;5.73;;
6093;SDS011;19964;42.060;24.700;2022-07-10T00:37:07;6.20;;;5.80;;
6093;SDS011;19964;42.060;24.700;2022-07-10T00:39:34;6.40;;;5.90;;
6093;SDS011;19964;42.060;24.700;2022-07-10T00:42:07;6.40;;;5.90;;
6093;SDS011;19964;42.060;24.700;2022-07-10T00:44:34;6.67;;;6.10;;
6093;SDS011;19964;42.060;24.700;2022-07-10T00:47:02;6.23;;;5.67;;
6093;SDS011;19964;42.060;24.700;2022-07-10T00:49:31;7.80;;;5.50;;
6093;SDS011;19964;42.060;24.700;2022-07-10T00:51:58;7.10;;;6.53;;
6093;SDS011;19964;42.060;24.700;2022-07-10T00:54:26;6.30;;;5.70;;
6093;SDS011;19964;42.060;24.700;2022-07-10T00:56:54;6.50;;;6.00;;
6093;SDS011;19964;42.060;24.700;2022-07-10T00:59:21;6.80;;;6.27;;
6093;SDS011;19964;42.060;24.700;2022-07-10T01:01:48;6.17;;;5.77;;
6093;SDS011;19964;42.060;24.700;2022-07-10T01:04:16;5.90;;;5.60;;
6093;SDS011;19964;42.060;24.700;2022-07-10T01:06:44;5.93;;;5.43;;
6093;SDS011;19964;42.060;24.700;2022-07-10T01:09:11;6.53;;;5.80;;
6093;SDS011;19964;42.060;24.700;2022-07-10T01:11:38;6.23;;;5.83;;
6093;SDS011;19964;42.060;24.700;2022-07-10T01:14:05;5.90;;;5.40;;
6093;SDS011;19964;42.060;24.700;2022-07-10T01:16:32;6.00;;;5.53;;
6093;SDS011;19964;42.060;24.700;2022-07-10T01:19:00;6.60;;;6.10;;
6093;SDS011;19964;42.060;24.700;2022-07-10T01:21:29;6.50;;;6.10;;
6093;SDS011;19964;42.060;24.700;2022-07-10T01:24:03;6.00;;;5.60;;
6093;SDS011;19964;42.060;24.700;2022-07-10T01:26:31;7.07;;;6.00;;
6093;SDS011;19964;42.060;24.700;2022-07-10T01:28:58;5.80;;;5.50;;
6093;SDS011;19964;42.060;24.700;2022-07-10T01:31:29;6.23;;;5.80;;
6093;SDS011;19964;42.060;24.700;2022-07-10T01:33:56;5.83;;;5.47;;
6093;SDS011;19964;42.060;24.700;2022-07-10T01:36:23;6.47;;;5.93;;
6093;SDS011;19964;42.060;24.700;2022-07-10T01:38:52;6.27;;;5.50;;
6093;SDS011;19964;42.060;24.700;2022-07-10T01:41:19;6.00;;;5.60;;
6093;SDS011;19964;42.060;24.700;2022-07-10T01:43:46;6.40;;;6.00;;
6093;SDS011;19964;42.060;24.700;2022-07-10T01:46:13;6.37;;;5.80;;
6093;SDS011;19964;42.060;24.700;2022-07-10T01:48:41;6.17;;;5.57;;
6093;SDS011;19964;42.060;24.700;2022-07-10T01:51:08;6.33;;;5.83;;
6093;SDS011;19964;42.060;24.700;2022-07-10T01:53:36;5.93;;;5.53;;
6093;SDS011;19964;42.060;24.700;2022-07-10T01:56:06;5.80;;;5.40;;
6093;SDS011;19964;42.060;24.700;2022-07-10T01:58:34;6.10;;;5.70;;
6093;SDS011;19964;42.060;24.700;2022-07-10T02:01:01;7.40;;;5.60;;
6093;SDS011;19964;42.060;24.700;2022-07-10T02:03:28;6.27;;;5.67;;
6093;SDS011;19964;42.060;24.700;2022-07-10T02:06:13;6.50;;;6.10;;
6093;SDS011;19964;42.060;24.700;2022-07-10T02:08:40;5.97;;;5.47;;
6093;SDS011;19964;42.060;24.700;2022-07-10T02:11:08;6.10;;;5.70;;
6093;SDS011;19964;42.060;24.700;2022-07-10T02:13:37;6.83;;;6.27;;
6093;SDS011;19964;42.060;24.700;2022-07-10T02:16:04;6.70;;;6.10;;
6093;SDS011;19964;42.060;24.700;2022-07-10T02:18:31;6.40;;;6.00;;
6093;SDS011;19964;42.060;24.700;2022-07-10T02:20:58;6.50;;;5.70;;
6093;SDS011;19964;42.060;24.700;2022-07-10T02:23:25;6.47;;;6.03;;
6093;SDS011;19964;42.060;24.700;2022-07-10T02:25:53;6.47;;;5.90;;
6093;SDS011;19964;42.060;24.700;2022-07-10T02:28:21;7.03;;;5.97;;
6093;SDS011;19964;42.060;24.700;2022-07-10T02:30:48;6.53;;;6.03;;
6093;SDS011;19964;42.060;24.700;2022-07-10T02:33:15;6.50;;;6.00;;
6093;SDS011;19964;42.060;24.700;2022-07-10T02:35:41;7.90;;;6.73;;
6093;SDS011;19964;42.060;24.700;2022-07-10T02:38:08;7.63;;;6.13;;
6093;SDS011;19964;42.060;24.700;2022-07-10T02:40:35;11.13;;;6.13;;
6093;SDS011;19964;42.060;24.700;2022-07-10T02:43:02;7.57;;;6.73;;
6093;SDS011;19964;42.060;24.700;2022-07-10T02:45:30;7.87;;;6.40;;
6093;SDS011;19964;42.060;24.700;2022-07-10T02:47:57;6.50;;;5.93;;
6093;SDS011;19964;42.060;24.700;2022-07-10T02:50:24;8.70;;;6.53;;
6093;SDS011;19964;42.060;24.700;2022-07-10T02:52:51;7.00;;;6.40;;
6093;SDS011;19964;42.060;24.700;2022-07-10T02:55:17;7.77;;;7.00;;
6093;SDS011;19964;42.060;24.700;2022-07-10T02:57:44;7.27;;;6.73;;
6093;SDS011;19964;42.060;24.700;2022-07-10T03:00:12;7.83;;;7.23;;
6093;SDS011;19964;42.060;24.700;2022-07-10T03:02:40;8.47;;;6.90;;
6093;SDS011;19964;42.060;24.700;2022-07-10T03:05:07;8.00;;;6.93;;
6093;SDS011;19964;42.060;24.700;2022-07-10T03:07:35;9.87;;;7.17;;
6093;SDS011;19964;42.060;24.700;2022-07-10T03:10:01;8.13;;;7.50;;
6093;SDS011;19964;42.060;24.700;2022-07-10T03:12:28;9.90;;;7.13;;
6093;SDS011;19964;42.060;24.700;2022-07-10T03:14:55;7.57;;;7.07;;
6093;SDS011;19964;42.060;24.700;2022-07-10T03:17:24;7.10;;;6.63;;
6093;SDS011;19964;42.060;24.700;2022-07-10T03:19:52;7.40;;;6.90;;
6093;SDS011;19964;42.060;24.700;2022-07-10T03:22:19;7.50;;;6.80;;
6093;SDS011;19964;42.060;24.700;2022-07-10T03:24:46;7.77;;;7.00;;
6093;SDS011;19964;42.060;24.700;2022-07-10T03:27:14;7.80;;;7.13;;
6093;SDS011;19964;42.060;24.700;2022-07-10T03:29:41;7.93;;;7.13;;
6093;SDS011;19964;42.060;24.700;2022-07-10T03:32:08;7.20;;;6.50;;
6093;SDS011;19964;42.060;24.700;2022-07-10T03:34:35;7.37;;;6.87;;
6093;SDS011;19964;42.060;24.700;2022-07-10T03:37:03;7.37;;;6.77;;
6093;SDS011;19964;42.060;24.700;2022-07-10T03:39:31;7.17;;;6.57;;
6093;SDS011;19964;42.060;24.700;2022-07-10T03:41:59;7.30;;;6.60;;
6093;SDS011;19964;42.060;24.700;2022-07-10T03:44:26;7.80;;;7.23;;
6093;SDS011;19964;42.060;24.700;2022-07-10T03:46:53;7.53;;;7.03;;
6093;SDS011;19964;42.060;24.700;2022-07-10T03:49:20;7.30;;;6.67;;
6093;SDS011;19964;42.060;24.700;2022-07-10T03:51:47;7.10;;;6.60;;
6093;SDS011;19964;42.060;24.700;2022-07-10T03:54:15;7.93;;;7.23;;
6093;SDS011;19964;42.060;24.700;2022-07-10T03:56:42;7.77;;;7.27;;
6093;SDS011;19964;42.060;24.700;2022-07-10T03:59:26;7.40;;;6.73;;
6093;SDS011;19964;42.060;24.700;2022-07-10T04:01:53;7.77;;;6.87;;
6093;SDS011;19964;42.060;24.700;2022-07-10T04:04:20;8.00;;;6.63;;
6093;SDS011;19964;42.060;24.700;2022-07-10T04:06:47;6.97;;;6.53;;
6093;SDS011;19964;42.060;24.700;2022-07-10T04:09:15;7.13;;;6.63;;
6093;SDS011;19964;42.060;24.700;2022-07-10T04:11:42;6.80;;;6.40;;
6093;SDS011;19964;42.060;24.700;2022-07-10T04:14:09;8.07;;;7.37;;
6093;SDS011;19964;42.060;24.700;2022-07-10T04:16:36;6.93;;;6.53;;
6093;SDS011;19964;42.060;24.700;2022-07-10T04:19:03;7.77;;;7.10;;
6093;SDS011;19964;42.060;24.700;2022-07-10T04:21:30;7.73;;;6.77;;
6093;SDS011;19964;42.060;24.700;2022-07-10T04:23:56;7.87;;;7.10;;
6093;SDS011;19964;42.060;24.700;2022-07-10T04:26:25;6.93;;;6.47;;
6093;SDS011;19964;42.060;24.700;2022-07-10T04:28:52;7.53;;;6.87;;
6093;SDS011;19964;42.060;24.700;2022-07-10T04:31:19;6.93;;;6.53;;
6093;SDS011;19964;42.060;24.700;2022-07-10T04:33:46;7.63;;;7.00;;
6093;SDS011;19964;42.060;24.700;2022-07-10T04:36:13;7.57;;;7.07;;
6093;SDS011;19964;42.060;24.700;2022-07-10T04:38:40;7.63;;;7.20;;
6093;SDS011;19964;42.060;24.700;2022-07-10T04:41:06;8.00;;;7.40;;
6093;SDS011;19964;42.060;24.700;2022-07-10T04:43:35;7.50;;;6.87;;
6093;SDS011;19964;42.060;24.700;2022-07-10T04:46:01;7.27;;;6.87;;
6093;SDS011;19964;42.060;24.700;2022-07-10T04:48:28;7.53;;;7.03;;
6093;SDS011;19964;42.060;24.700;2022-07-10T04:50:55;6.97;;;6.57;;
6093;SDS011;19964;42.060;24.700;2022-07-10T04:53:23;7.00;;;6.50;;
6093;SDS011;19964;42.060;24.700;2022-07-10T04:55:49;6.93;;;6.30;;
6093;SDS011;19964;42.060;24.700;2022-07-10T04:58:16;7.50;;;6.90;;
6093;SDS011;19964;42.060;24.700;2022-07-10T05:00:44;7.00;;;6.40;;
6093;SDS011;19964;42.060;24.700;2022-07-10T05:03:11;6.60;;;6.10;;
6093;SDS011;19964;42.060;24.700;2022-07-10T05:05:40;6.80;;;6.20;;
6093;SDS011;19964;42.060;24.700;2022-07-10T05:08:08;7.30;;;6.70;;
6093;SDS011;19964;42.060;24.700;2022-07-10T05:10:35;6.43;;;6.03;;
6093;SDS011;19964;42.060;24.700;2022-07-10T05:13:02;6.35;;;5.93;;
6093;SDS011;19964;42.060;24.700;2022-07-10T05:15:29;6.50;;;6.10;;
6093;SDS011;19964;42.060;24.700;2022-07-10T05:17:57;7.13;;;6.53;;
6093;SDS011;19964;42.060;24.700;2022-07-10T05:20:24;6.05;;;5.68;;
6093;SDS011;19964;42.060;24.700;2022-07-10T05:22:51;6.38;;;5.88;;
6093;SDS011;19964;42.060;24.700;2022-07-10T05:25:18;6.20;;;5.70;;
6093;SDS011;19964;42.060;24.700;2022-07-10T05:27:46;6.47;;;6.07;;
6093;SDS011;19964;42.060;24.700;2022-07-10T05:30:13;6.00;;;5.70;;
6093;SDS011;19964;42.060;24.700;2022-07-10T05:32:43;6.30;;;6.00;;
6093;SDS011;19964;42.060;24.700;2022-07-10T05:35:13;6.30;;;5.80;;
6093;SDS011;19964;42.060;24.700;2022-07-10T05:37:40;6.63;;;5.88;;
6093;SDS011;19964;42.060;24.700;2022-07-10T05:40:07;6.50;;;5.90;;
6093;SDS011;19964;42.060;24.700;2022-07-10T05:42:35;6.28;;;5.60;;
6093;SDS011;19964;42.060;24.700;2022-07-10T05:45:02;6.22;;;5.65;;
6093;SDS011;19964;42.060;24.700;2022-07-10T05:47:30;5.97;;;5.47;;
6093;SDS011;19964;42.060;24.700;2022-07-10T05:49:58;6.10;;;5.63;;
6093;SDS011;19964;42.060;24.700;2022-07-10T05:52:26;7.93;;;5.60;;
6093;SDS011;19964;42.060;24.700;2022-07-10T05:54:55;6.90;;;5.63;;
6093;SDS011;19964;42.060;24.700;2022-07-10T05:57:22;6.70;;;6.00;;
6093;SDS011;19964;42.060;24.700;2022-07-10T05:59:49;5.80;;;5.40;;
6093;SDS011;19964;42.060;24.700;2022-07-10T06:02:15;6.50;;;5.90;;
6093;SDS011;19964;42.060;24.700;2022-07-10T06:04:42;6.38;;;5.75;;
6093;SDS011;19964;42.060;24.700;2022-07-10T06:07:09;7.53;;;5.80;;
6093;SDS011;19964;42.060;24.700;2022-07-10T06:09:38;6.55;;;6.05;;
6093;SDS011;19964;42.060;24.700;2022-07-10T06:12:04;6.32;;;5.78;;
6093;SDS011;19964;42.060;24.700;2022-07-10T06:14:32;6.13;;;5.60;;
6093;SDS011;19964;42.060;24.700;2022-07-10T06:16:58;6.07;;;5.60;;
6093;SDS011;19964;42.060;24.700;2022-07-10T06:19:25;6.15;;;5.65;;
6093;SDS011;19964;42.060;24.700;2022-07-10T06:21:52;5.90;;;5.60;;
6093;SDS011;19964;42.060;24.700;2022-07-10T06:24:33;6.68;;;6.28;;
6093;SDS011;19964;42.060;24.700;2022-07-10T06:27:01;6.47;;;6.03;;
6093;SDS011;19964;42.060;24.700;2022-07-10T06:29:28;6.97;;;6.38;;
6093;SDS011;19964;42.060;24.700;2022-07-10T06:31:55;7.38;;;6.85;;
6093;SDS011;19964;42.060;24.700;2022-07-10T06:34:22;6.50;;;6.20;;
6093;SDS011;19964;42.060;24.700;2022-07-10T06:36:49;7.57;;;6.90;;
6093;SDS011;19964;42.060;24.700;2022-07-10T06:39:15;6.93;;;6.50;;
6093;SDS011;19964;42.060;24.700;2022-07-10T06:41:42;7.25;;;6.75;;
6093;SDS011;19964;42.060;24.700;2022-07-10T06:44:10;7.10;;;6.60;;
6093;SDS011;19964;42.060;24.700;2022-07-10T06:46:37;7.00;;;6.50;;
6093;SDS011;19964;42.060;24.700;2022-07-10T06:49:04;7.60;;;7.13;;
6093;SDS011;19964;42.060;24.700;2022-07-10T06:51:30;6.80;;;6.40;;
6093;SDS011;19964;42.060;24.700;2022-07-10T06:53:57;7.97;;;7.38;;
6093;SDS011;19964;42.060;24.700;2022-07-10T06:56:24;7.13;;;6.72;;
6093;SDS011;19964;42.060;24.700;2022-07-10T06:58:52;7.57;;;6.82;;
6093;SDS011;19964;42.060;24.700;2022-07-10T07:01:21;10.13;;;6.72;;
6093;SDS011;19964;42.060;24.700;2022-07-10T07:03:47;6.43;;;6.03;;
6093;SDS011;19964;42.060;24.700;2022-07-10T07:06:14;6.90;;;6.50;;
6093;SDS011;19964;42.060;24.700;2022-07-10T07:08:41;7.35;;;6.93;;
6093;SDS011;19964;42.060;24.700;2022-07-10T07:11:08;6.90;;;6.50;;
6093;SDS011;19964;42.060;24.700;2022-07-10T07:13:35;9.82;;;7.00;;
6093;SDS011;19964;42.060;24.700;2022-07-10T07:16:02;7.35;;;6.75;;
6093;SDS011;19964;42.060;24.700;2022-07-10T07:18:34;7.32;;;6.78;;
6093;SDS011;19964;42.060;24.700;2022-07-10T07:21:12;7.28;;;6.75;;
6093;SDS011;19964;42.060;24.700;2022-07-10T07:23:57;7.38;;;6.72;;
6093;SDS011;19964;42.060;24.700;2022-07-10T07:26:24;7.45;;;6.88;;
6093;SDS011;19964;42.060;24.700;2022-07-10T07:28:51;7.72;;;7.05;;
6093;SDS011;19964;42.060;24.700;2022-07-10T07:31:17;8.10;;;7.43;;
6093;SDS011;19964;42.060;24.700;2022-07-10T07:33:46;7.43;;;6.82;;
6093;SDS011;19964;42.060;24.700;2022-07-10T07:36:13;7.57;;;7.07;;
6093;SDS011;19964;42.060;24.700;2022-07-10T07:38:40;8.38;;;7.70;;
6093;SDS011;19964;42.060;24.700;2022-07-10T07:41:07;8.10;;;7.50;;
6093;SDS011;19964;42.060;24.700;2022-07-10T07:43:35;7.78;;;7.18;;
6093;SDS011;19964;42.060;24.700;2022-07-10T07:46:02;7.63;;;6.95;;
6093;SDS011;19964;42.060;24.700;2022-07-10T07:48:29;7.18;;;6.68;;
6093;SDS011;19964;42.060;24.700;2022-07-10T07:50:58;6.85;;;6.45;;
6093;SDS011;19964;42.060;24.700;2022-07-10T07:53:24;7.32;;;6.82;;
6093;SDS011;19964;42.060;24.700;2022-07-10T07:55:51;7.13;;;6.72;;
6093;SDS011;19964;42.060;24.700;2022-07-10T07:58:19;7.78;;;7.18;;
6093;SDS011;19964;42.060;24.700;2022-07-10T08:00:46;7.50;;;7.00;;
6093;SDS011;19964;42.060;24.700;2022-07-10T08:03:13;8.18;;;7.35;;
6093;SDS011;19964;42.060;24.700;2022-07-10T08:05:40;7.60;;;7.10;;
6093;SDS011;19964;42.060;24.700;2022-07-10T08:08:08;7.82;;;7.10;;
6093;SDS011;19964;42.060;24.700;2022-07-10T08:10:36;7.05;;;6.35;;
6093;SDS011;19964;42.060;24.700;2022-07-10T08:13:03;7.53;;;6.82;;
6093;SDS011;19964;42.060;24.700;2022-07-10T08:15:30;7.65;;;7.20;;
6093;SDS011;19964;42.060;24.700;2022-07-10T08:17:59;7.47;;;6.97;;
6093;SDS011;19964;42.060;24.700;2022-07-10T08:20:29;7.82;;;7.22;;
6093;SDS011;19964;42.060;24.700;2022-07-10T08:22:57;8.02;;;7.40;;
6093;SDS011;19964;42.060;24.700;2022-07-10T08:25:26;9.05;;;8.18;;
6093;SDS011;19964;42.060;24.700;2022-07-10T08:27:56;8.77;;;7.95;;
6093;SDS011;19964;42.060;24.700;2022-07-10T08:30:26;8.55;;;7.85;;
6093;SDS011;19964;42.060;24.700;2022-07-10T08:32:53;8.02;;;7.53;;
6093;SDS011;19964;42.060;24.700;2022-07-10T08:35:20;8.48;;;7.78;;
6093;SDS011;19964;42.060;24.700;2022-07-10T08:37:47;8.48;;;7.78;;
6093;SDS011;19964;42.060;24.700;2022-07-10T08:40:14;8.27;;;7.70;;
6093;SDS011;19964;42.060;24.700;2022-07-10T08:42:45;9.23;;;8.43;;
6093;SDS011;19964;42.060;24.700;2022-07-10T08:45:12;8.10;;;7.50;;
6093;SDS011;19964;42.060;24.700;2022-07-10T08:47:40;8.77;;;8.15;;
6093;SDS011;19964;42.060;24.700;2022-07-10T08:50:14;8.85;;;8.10;;
6093;SDS011;19964;42.060;24.700;2022-07-10T08:52:47;9.70;;;9.00;;
6093;SDS011;19964;42.060;24.700;2022-07-10T08:55:21;9.25;;;8.45;;
6093;SDS011;19964;42.060;24.700;2022-07-10T08:57:51;8.05;;;7.35;;
6093;SDS011;19964;42.060;24.700;2022-07-10T09:00:21;7.47;;;7.07;;
6093;SDS011;19964;42.060;24.700;2022-07-10T09:02:48;8.18;;;7.63;;
6093;SDS011;19964;42.060;24.700;2022-07-10T09:05:15;8.05;;;7.55;;
6093;SDS011;19964;42.060;24.700;2022-07-10T09:07:42;8.02;;;7.53;;
6093;SDS011;19964;42.060;24.700;2022-07-10T09:10:10;7.68;;;7.10;;
6093;SDS011;19964;42.060;24.700;2022-07-10T09:15:25;8.25;;;7.75;;
6093;SDS011;19964;42.060;24.700;2022-07-10T09:17:55;8.25;;;7.55;;
6093;SDS011;19964;42.060;24.700;2022-07-10T09:20:30;7.65;;;7.15;;
6093;SDS011;19964;42.060;24.700;2022-07-10T09:22:58;8.60;;;8.00;;
6093;SDS011;19964;42.060;24.700;2022-07-10T09:25:35;8.45;;;7.85;;
6093;SDS011;19964;42.060;24.700;2022-07-10T09:28:03;8.35;;;7.70;;
6093;SDS011;19964;42.060;24.700;2022-07-10T09:30:34;8.85;;;8.25;;
6093;SDS011;19964;42.060;24.700;2022-07-10T09:33:14;7.53;;;7.13;;
6093;SDS011;19964;42.060;24.700;2022-07-10T09:35:56;7.85;;;7.38;;
6093;SDS011;19964;42.060;24.700;2022-07-10T09:38:49;8.05;;;7.55;;
6093;SDS011;19964;42.060;24.700;2022-07-10T09:41:18;8.05;;;7.43;;
6093;SDS011;19964;42.060;24.700;2022-07-10T09:43:48;7.85;;;7.15;;
6093;SDS011;19964;42.060;24.700;2022-07-10T09:46:16;7.93;;;7.32;;
6093;SDS011;19964;42.060;24.700;2022-07-10T09:48:44;7.88;;;7.20;;
6093;SDS011;19964;42.060;24.700;2022-07-10T09:51:11;8.63;;;7.95;;
6093;SDS011;19964;42.060;24.700;2022-07-10T09:53:38;8.32;;;7.63;;
6093;SDS011;19964;42.060;24.700;2022-07-10T09:56:07;9.07;;;7.97;;
6093;SDS011;19964;42.060;24.700;2022-07-10T09:58:35;8.57;;;7.95;;
6093;SDS011;19964;42.060;24.700;2022-07-10T10:01:05;8.18;;;7.68;;
6093;SDS011;19964;42.060;24.700;2022-07-10T10:03:32;8.15;;;7.65;;
6093;SDS011;19964;42.060;24.700;2022-07-10T10:06:04;8.30;;;7.70;;
6093;SDS011;19964;42.060;24.700;2022-07-10T10:08:37;8.65;;;7.95;;
6093;SDS011;19964;42.060;24.700;2022-07-10T10:11:19;8.23;;;7.72;;
6093;SDS011;19964;42.060;24.700;2022-07-10T10:13:47;8.73;;;8.13;;
6093;SDS011;19964;42.060;24.700;2022-07-10T10:16:16;8.25;;;7.65;;
6093;SDS011;19964;42.060;24.700;2022-07-10T10:18:46;9.20;;;8.60;;
6093;SDS011;19964;42.060;24.700;2022-07-10T10:21:30;8.48;;;7.97;;
6093;SDS011;19964;42.060;24.700;2022-07-10T10:23:59;8.63;;;8.13;;
6093;SDS011;19964;42.060;24.700;2022-07-10T10:26:27;9.30;;;8.38;;
6093;SDS011;19964;42.060;24.700;2022-07-10T10:28:54;9.02;;;8.40;;
6093;SDS011;19964;42.060;24.700;2022-07-10T10:31:24;8.85;;;8.25;;
6093;SDS011;19964;42.060;24.700;2022-07-10T10:33:54;8.98;;;8.38;;
6093;SDS011;19964;42.060;24.700;2022-07-10T10:39:12;8.13;;;7.63;;
6093;SDS011;19964;42.060;24.700;2022-07-10T10:41:41;9.00;;;8.40;;
6093;SDS011;19964;42.060;24.700;2022-07-10T10:44:23;8.60;;;8.10;;
6093;SDS011;19964;42.060;24.700;2022-07-10T10:46:56;8.82;;;8.05;;
6093;SDS011;19964;42.060;24.700;2022-07-10T10:49:49;8.20;;;7.70;;
6093;SDS011;19964;42.060;24.700;2022-07-10T10:52:22;8.13;;;7.65;;
6093;SDS011;19964;42.060;24.700;2022-07-10T10:54:59;8.43;;;7.82;;
6093;SDS011;19964;42.060;24.700;2022-07-10T10:57:36;8.13;;;7.63;;
6093;SDS011;19964;42.060;24.700;2022-07-10T11:00:06;8.32;;;7.60;;
6093;SDS011;19964;42.060;24.700;2022-07-10T11:02:36;8.30;;;7.80;;
6093;SDS011;19964;42.060;24.700;2022-07-10T11:08:07;8.13;;;7.32;;
6093;SDS011;19964;42.060;24.700;2022-07-10T11:10:35;7.28;;;6.78;;
6093;SDS011;19964;42.060;24.700;2022-07-10T11:13:03;7.25;;;6.82;;
6093;SDS011;19964;42.060;24.700;2022-07-10T11:15:32;8.57;;;7.85;;
6093;SDS011;19964;42.060;24.700;2022-07-10T11:18:04;8.63;;;8.02;;
6093;SDS011;19964;42.060;24.700;2022-07-10T11:20:33;8.95;;;8.07;;
6093;SDS011;19964;42.060;24.700;2022-07-10T11:23:17;7.53;;;7.03;;
6093;SDS011;19964;42.060;24.700;2022-07-10T11:26:02;7.90;;;7.28;;
6093;SDS011;19964;42.060;24.700;2022-07-10T11:28:41;7.57;;;7.07;;
6093;SDS011;19964;42.060;24.700;2022-07-10T11:31:15;7.10;;;6.60;;
6093;SDS011;19964;42.060;24.700;2022-07-10T11:33:45;7.20;;;6.57;;
6093;SDS011;19964;42.060;24.700;2022-07-10T11:36:14;7.63;;;6.93;;
6093;SDS011;19964;42.060;24.700;2022-07-10T11:38:43;7.65;;;7.10;;
6093;SDS011;19964;42.060;24.700;2022-07-10T11:41:14;8.05;;;7.38;;
6093;SDS011;19964;42.060;24.700;2022-07-10T11:43:48;7.50;;;7.10;;
6093;SDS011;19964;42.060;24.700;2022-07-10T11:46:16;6.97;;;6.47;;
6093;SDS011;19964;42.060;24.700;2022-07-10T11:48:45;7.20;;;6.53;;
6093;SDS011;19964;42.060;24.700;2022-07-10T11:51:22;7.20;;;6.65;;
6093;SDS011;19964;42.060;24.700;2022-07-10T11:53:54;7.85;;;7.25;;
6093;SDS011;19964;42.060;24.700;2022-07-10T11:56:23;7.15;;;6.65;;
6093;SDS011;19964;42.060;24.700;2022-07-10T11:58:54;6.53;;;6.15;;
6093;SDS011;19964;42.060;24.700;2022-07-10T12:01:22;6.93;;;6.47;;
6093;SDS011;19964;42.060;24.700;2022-07-10T12:03:57;6.88;;;6.47;;
6093;SDS011;19964;42.060;24.700;2022-07-10T12:06:28;6.35;;;6.05;;
6093;SDS011;19964;42.060;24.700;2022-07-10T12:08:55;6.65;;;6.25;;
6093;SDS011;19964;42.060;24.700;2022-07-10T12:11:27;6.82;;;6.40;;
6093;SDS011;19964;42.060;24.700;2022-07-10T12:13:54;6.50;;;6.10;;
6093;SDS011;19964;42.060;24.700;2022-07-10T12:16:35;7.25;;;6.78;;
6093;SDS011;19964;42.060;24.700;2022-07-10T12:19:05;6.45;;;5.95;;
6093;SDS011;19964;42.060;24.700;2022-07-10T12:21:34;6.53;;;6.00;;
6093;SDS011;19964;42.060;24.700;2022-07-10T12:24:01;5.90;;;5.50;;
6093;SDS011;19964;42.060;24.700;2022-07-10T12:26:32;5.90;;;5.50;;
6093;SDS011;19964;42.060;24.700;2022-07-10T12:29:01;6.47;;;5.97;;
6093;SDS011;19964;42.060;24.700;2022-07-10T12:31:29;6.50;;;6.10;;
6093;SDS011;19964;42.060;24.700;2022-07-10T12:33:58;6.22;;;5.60;;
6093;SDS011;19964;42.060;24.700;2022-07-10T12:36:48;6.40;;;5.93;;
6093;SDS011;19964;42.060;24.700;2022-07-10T12:39:16;6.20;;;5.80;;
6093;SDS011;19964;42.060;24.700;2022-07-10T12:41:53;6.45;;;6.05;;
6093;SDS011;19964;42.060;24.700;2022-07-10T12:44:31;6.00;;;5.70;;
6093;SDS011;19964;42.060;24.700;2022-07-10T12:47:02;6.53;;;6.13;;
6093;SDS011;19964;42.060;24.700;2022-07-10T12:49:47;7.03;;;6.32;;
6093;SDS011;19964;42.060;24.700;2022-07-10T12:52:22;5.97;;;5.50;;
6093;SDS011;19964;42.060;24.700;2022-07-10T12:55:04;5.72;;;5.43;;
6093;SDS011;19964;42.060;24.700;2022-07-10T12:57:32;5.90;;;5.50;;
6093;SDS011;19964;42.060;24.700;2022-07-10T13:00:11;5.90;;;5.60;;
6093;SDS011;19964;42.060;24.700;2022-07-10T13:02:44;5.97;;;5.57;;
6093;SDS011;19964;42.060;24.700;2022-07-10T13:05:10;6.40;;;6.00;;
6093;SDS011;19964;42.060;24.700;2022-07-10T13:08:03;6.13;;;5.70;;
6093;SDS011;19964;42.060;24.700;2022-07-10T13:10:32;6.95;;;6.45;;
6093;SDS011;19964;42.060;24.700;2022-07-10T13:12:59;6.68;;;6.28;;
6093;SDS011;19964;42.060;24.700;2022-07-10T13:15:25;6.78;;;6.28;;
6093;SDS011;19964;42.060;24.700;2022-07-10T13:17:52;6.85;;;6.45;;
6093;SDS011;19964;42.060;24.700;2022-07-10T13:20:19;6.75;;;6.35;;
6093;SDS011;19964;42.060;24.700;2022-07-10T13:22:46;6.78;;;6.28;;
6093;SDS011;19964;42.060;24.700;2022-07-10T13:25:14;6.65;;;6.25;;
6093;SDS011;19964;42.060;24.700;2022-07-10T13:27:41;6.15;;;5.85;;
6093;SDS011;19964;42.060;24.700;2022-07-10T13:30:09;7.20;;;6.70;;
6093;SDS011;19964;42.060;24.700;2022-07-10T13:32:37;6.07;;;5.70;;
6093;SDS011;19964;42.060;24.700;2022-07-10T13:35:04;5.97;;;5.63;;
6093;SDS011;19964;42.060;24.700;2022-07-10T13:37:31;5.82;;;5.53;;
6093;SDS011;19964;42.060;24.700;2022-07-10T13:39:58;6.25;;;5.75;;
6093;SDS011;19964;42.060;24.700;2022-07-10T13:42:26;6.20;;;5.90;;
6093;SDS011;19964;42.060;24.700;2022-07-10T13:44:53;5.90;;;5.50;;
6093;SDS011;19964;42.060;24.700;2022-07-10T13:47:20;6.00;;;5.60;;
6093;SDS011;19964;42.060;24.700;2022-07-10T13:49:47;6.13;;;5.60;;
6093;SDS011;19964;42.060;24.700;2022-07-10T13:52:14;6.13;;;5.72;;
6093;SDS011;19964;42.060;24.700;2022-07-10T13:54:41;6.15;;;5.70;;
6093;SDS011;19964;42.060;24.700;2022-07-10T13:57:08;5.32;;;5.03;;
6093;SDS011;19964;42.060;24.700;2022-07-10T13:59:36;6.40;;;5.90;;
6093;SDS011;19964;42.060;24.700;2022-07-10T14:02:03;6.30;;;5.90;;
6093;SDS011;19964;42.060;24.700;2022-07-10T14:04:30;6.30;;;5.90;;
6093;SDS011;19964;42.060;24.700;2022-07-10T14:06:57;5.63;;;5.32;;
6093;SDS011;19964;42.060;24.700;2022-07-10T14:09:24;6.38;;;6.00;;
6093;SDS011;19964;42.060;24.700;2022-07-10T14:11:51;5.93;;;5.63;;
6093;SDS011;19964;42.060;24.700;2022-07-10T14:14:18;5.82;;;5.45;;
6093;SDS011;19964;42.060;24.700;2022-07-10T14:16:46;6.07;;;5.63;;
6093;SDS011;19964;42.060;24.700;2022-07-10T14:19:14;6.20;;;5.80;;
6093;SDS011;19964;42.060;24.700;2022-07-10T14:21:41;5.60;;;5.05;;
6093;SDS011;19964;42.060;24.700;2022-07-10T14:24:08;5.57;;;5.28;;
6093;SDS011;19964;42.060;24.700;2022-07-10T14:26:35;6.50;;;5.95;;
6093;SDS011;19964;42.060;24.700;2022-07-10T14:29:02;5.70;;;5.22;;
6093;SDS011;19964;42.060;24.700;2022-07-10T14:31:29;6.07;;;5.68;;
6093;SDS011;19964;42.060;24.700;2022-07-10T14:33:57;6.50;;;6.10;;
6093;SDS011;19964;42.060;24.700;2022-07-10T14:36:24;7.13;;;6.25;;
6093;SDS011;19964;42.060;24.700;2022-07-10T14:38:52;7.07;;;6.20;;
6093;SDS011;19964;42.060;24.700;2022-07-10T14:41:19;6.70;;;6.20;;
6093;SDS011;19964;42.060;24.700;2022-07-10T14:43:46;6.57;;;6.07;;
6093;SDS011;19964;42.060;24.700;2022-07-10T14:46:13;6.82;;;6.30;;
6093;SDS011;19964;42.060;24.700;2022-07-10T14:48:40;6.63;;;6.22;;
6093;SDS011;19964;42.060;24.700;2022-07-10T14:51:08;7.32;;;6.82;;
6093;SDS011;19964;42.060;24.700;2022-07-10T14:53:35;7.05;;;6.55;;
6093;SDS011;19964;42.060;24.700;2022-07-10T14:56:02;7.13;;;6.57;;
6093;SDS011;19964;42.060;24.700;2022-07-10T14:58:30;7.68;;;7.07;;
6093;SDS011;19964;42.060;24.700;2022-07-10T15:00:57;7.20;;;6.63;;
6093;SDS011;19964;42.060;24.700;2022-07-10T15:03:25;7.05;;;6.55;;
6093;SDS011;19964;42.060;24.700;2022-07-10T15:05:52;8.23;;;7.40;;